createdAt,value
2018-04-27T00:01:23.491Z,76.50
2018-04-27T00:03:51.549Z,75.80
2018-04-27T00:06:19.947Z,72.70
2018-04-27T00:08:48.015Z,73.80
2018-04-27T00:11:16.066Z,75.40
2018-04-27T00:13:44.462Z,74.10
2018-04-27T00:16:12.553Z,73.10
2018-04-27T00:18:40.612Z,72.70
2018-04-27T00:21:08.988Z,73.20
2018-04-27T00:23:37.058Z,73.00
2018-04-27T00:26:05.122Z,72.10
2018-04-27T00:28:33.537Z,72.70
2018-04-27T00:31:02.365Z,73.50
2018-04-27T00:33:30.431Z,73.40
2018-04-27T00:35:58.981Z,73.30
2018-04-27T00:38:27.801Z,75.00
2018-04-27T00:40:55.867Z,74.80
2018-04-27T00:43:24.395Z,74.60
2018-04-27T00:45:52.480Z,73.70
2018-04-27T00:48:20.546Z,75.40
2018-04-27T00:50:48.910Z,75.90
2018-04-27T00:53:17.473Z,76.90
2018-04-27T00:55:45.517Z,76.80
2018-04-27T00:58:13.747Z,77.80
2018-04-27T01:00:41.812Z,77.80
2018-04-27T01:03:09.866Z,78.80
2018-04-27T01:05:38.255Z,77.40
2018-04-27T01:08:06.320Z,76.30
2018-04-27T01:10:34.376Z,75.10
2018-04-27T01:13:02.787Z,76.80
2018-04-27T01:15:30.841Z,77.10
2018-04-27T01:17:58.924Z,76.30
2018-04-27T01:20:27.143Z,76.20
2018-04-27T01:22:55.203Z,76.50
2018-04-27T01:25:24.032Z,77.70
2018-04-27T01:27:52.444Z,77.70
2018-04-27T01:30:20.508Z,76.80
2018-04-27T01:32:48.581Z,78.10
2018-04-27T01:35:16.952Z,77.20
2018-04-27T01:37:45.017Z,77.80
2018-04-27T01:40:13.096Z,77.20
2018-04-27T01:42:41.274Z,77.80
2018-04-27T01:45:09.345Z,76.80
2018-04-27T01:47:37.421Z,76.40
2018-04-27T01:50:05.692Z,78.00
2018-04-27T01:52:33.752Z,78.90
2018-04-27T01:55:02.502Z,79.40
2018-04-27T01:57:31.452Z,78.70
2018-04-27T01:59:59.516Z,78.60
2018-04-27T02:02:27.580Z,78.00
2018-04-27T02:04:55.986Z,78.40
2018-04-27T02:07:24.806Z,79.80
2018-04-27T02:09:52.861Z,79.20
2018-04-27T02:12:21.413Z,79.30
2018-04-27T02:14:49.466Z,79.90
2018-04-27T02:17:17.533Z,79.60
2018-04-27T02:19:46.237Z,79.80
2018-04-27T02:22:14.291Z,80.10
2018-04-27T02:24:42.372Z,80.90
2018-04-27T02:27:10.834Z,79.50
2018-04-27T02:29:38.888Z,81.90
2018-04-27T02:32:06.980Z,83.90
2018-04-27T02:34:35.274Z,84.00
2018-04-27T02:37:03.319Z,84.80
2018-04-27T02:39:31.376Z,84.90
2018-04-27T02:42:00.095Z,85.00
2018-04-27T02:44:28.169Z,86.50
2018-04-27T02:46:56.222Z,87.30
2018-04-27T02:49:24.624Z,87.90
2018-04-27T02:51:52.688Z,88.90
2018-04-27T02:54:20.743Z,89.40
2018-04-27T02:56:49.611Z,89.00
2018-04-27T02:59:17.682Z,89.40
2018-04-27T03:01:45.743Z,90.20
2018-04-27T03:04:13.981Z,90.10
2018-04-27T03:06:42.029Z,90.00
2018-04-27T03:09:10.089Z,90.30
2018-04-27T03:11:38.500Z,90.40
2018-04-27T03:14:06.563Z,90.60
2018-04-27T03:16:34.612Z,90.80
2018-04-27T03:19:03.014Z,91.10
2018-04-27T03:21:31.068Z,91.20
2018-04-27T03:23:59.264Z,91.10
2018-04-27T03:26:27.538Z,91.20
2018-04-27T03:28:55.596Z,91.60
2018-04-27T03:31:23.653Z,91.90
2018-04-27T03:33:52.084Z,91.70
2018-04-27T03:36:20.910Z,91.70
2018-04-27T03:38:48.976Z,91.70
2018-04-27T03:41:17.505Z,91.80
2018-04-27T03:43:45.562Z,91.80
2018-04-27T03:46:13.624Z,92.10
2018-04-27T03:48:42.037Z,92.00
2018-04-27T03:51:10.089Z,92.40
2018-04-27T03:53:38.157Z,92.80
2018-04-27T03:56:06.855Z,92.50
2018-04-27T03:58:35.388Z,92.60
2018-04-27T04:01:15.171Z,92.70
2018-04-27T04:03:54.923Z,92.70
2018-04-27T04:06:23.421Z,92.70
2018-04-27T04:08:52.248Z,92.70
2018-04-27T04:11:20.312Z,92.70
2018-04-27T04:13:48.553Z,92.70
2018-04-27T04:16:16.609Z,92.70
2018-04-27T04:18:44.678Z,93.40
2018-04-27T04:21:13.057Z,93.00
2018-04-27T04:23:41.117Z,92.70
2018-04-27T04:26:09.728Z,92.80
2018-04-27T04:28:38.244Z,92.80
2018-04-27T04:31:06.299Z,92.80
2018-04-27T04:33:35.149Z,93.10
2018-04-27T04:36:03.634Z,93.00
2018-04-27T04:38:31.706Z,92.90
2018-04-27T04:40:59.800Z,93.00
2018-04-27T04:43:28.792Z,93.50
2018-04-27T04:45:57.616Z,93.30
2018-04-27T04:48:25.730Z,93.30
2018-04-27T04:50:53.964Z,93.50
2018-04-27T04:53:22.028Z,93.40
2018-04-27T04:55:50.106Z,93.20
2018-04-27T04:58:18.430Z,93.10
2018-04-27T05:00:46.977Z,93.40
2018-04-27T05:03:15.030Z,93.40
2018-04-27T05:05:43.602Z,93.70
2018-04-27T05:08:11.654Z,93.60
2018-04-27T05:10:40.564Z,92.80
2018-04-27T05:13:08.871Z,92.70
2018-04-27T05:15:36.927Z,92.90
2018-04-27T05:18:28.752Z,93.30
2018-04-27T05:20:56.824Z,92.70
2018-04-27T05:23:25.246Z,92.70
2018-04-27T05:25:53.325Z,93.20
2018-04-27T05:28:21.379Z,92.90
2018-04-27T05:30:49.769Z,92.80
2018-04-27T05:33:17.858Z,92.90
2018-04-27T05:35:46.681Z,93.20
2018-04-27T05:38:14.919Z,93.10
2018-04-27T05:40:43.016Z,93.00
2018-04-27T05:43:11.817Z,93.10
2018-04-27T05:45:40.038Z,92.70
2018-04-27T05:48:08.124Z,93.30
2018-04-27T05:50:36.180Z,93.00
2018-04-27T05:53:04.871Z,92.50
2018-04-27T05:55:33.010Z,92.40
2018-04-27T05:58:01.803Z,91.70
2018-04-27T06:00:30.032Z,91.70
2018-04-27T06:02:59.162Z,92.10
2018-04-27T06:05:27.216Z,92.10
2018-04-27T06:07:55.749Z,91.90
2018-04-27T06:10:23.810Z,91.50
2018-04-27T06:12:51.866Z,91.30
2018-04-27T06:15:20.260Z,90.80
2018-04-27T06:17:48.348Z,90.80
2018-04-27T06:20:16.406Z,90.70
2018-04-27T06:22:46.942Z,91.10
2018-04-27T06:25:15.004Z,90.90
2018-04-27T06:27:43.060Z,90.70
2018-04-27T06:30:11.776Z,90.80
2018-04-27T06:32:39.842Z,90.10
2018-04-27T06:35:07.951Z,88.40
2018-04-27T06:37:36.879Z,87.00
2018-04-27T06:40:04.941Z,87.00
2018-04-27T06:42:33.000Z,87.30
2018-04-27T06:45:01.129Z,86.00
2018-04-27T06:47:29.213Z,87.40
2018-04-27T06:49:58.037Z,86.00
2018-04-27T06:52:26.549Z,86.00
2018-04-27T06:54:54.642Z,85.70
2018-04-27T06:57:22.706Z,83.90
2018-04-27T06:59:50.827Z,86.50
2018-04-27T07:02:18.938Z,85.20
2018-04-27T07:04:47.393Z,84.80
2018-04-27T07:07:16.034Z,84.30
2018-04-27T07:09:44.120Z,83.00
2018-04-27T07:12:12.189Z,85.60
2018-04-27T07:14:40.761Z,83.80
2018-04-27T07:17:09.659Z,83.30
2018-04-27T07:19:37.669Z,83.30
2018-04-27T07:22:06.179Z,83.30
2018-04-27T07:24:34.251Z,82.30
2018-04-27T07:27:02.321Z,82.20
2018-04-27T07:29:30.567Z,82.90
2018-04-27T07:31:58.660Z,83.50
2018-04-27T07:34:26.723Z,84.30
2018-04-27T07:36:55.242Z,82.60
2018-04-27T07:39:24.081Z,82.20
2018-04-27T07:41:52.149Z,82.20
2018-04-27T07:44:20.787Z,82.10
2018-04-27T07:46:48.884Z,81.20
2018-04-27T07:49:16.951Z,82.40
2018-04-27T07:51:45.236Z,83.40
2018-04-27T07:54:13.358Z,83.40
2018-04-27T07:56:41.424Z,83.30
2018-04-27T07:59:09.644Z,81.60
2018-04-27T08:01:37.722Z,81.40
2018-04-27T08:04:06.738Z,81.00
2018-04-27T08:06:35.730Z,83.60
2018-04-27T08:09:03.795Z,81.10
2018-04-27T08:11:32.208Z,81.80
2018-04-27T08:14:00.650Z,81.30
2018-04-27T08:16:29.661Z,79.50
2018-04-27T08:18:57.736Z,79.20
2018-04-27T08:21:26.489Z,81.50
2018-04-27T08:23:54.569Z,79.60
2018-04-27T08:26:22.751Z,79.00
2018-04-27T08:28:51.829Z,80.00
2018-04-27T08:31:19.897Z,80.50
2018-04-27T08:33:47.981Z,79.40
2018-04-27T08:36:16.404Z,78.30
2018-04-27T08:38:44.391Z,77.40
2018-04-27T08:41:13.235Z,75.40
2018-04-27T08:43:41.488Z,75.30
2018-04-27T08:46:09.558Z,74.80
2018-04-27T08:48:37.627Z,76.10
2018-04-27T08:51:06.087Z,74.90
2018-04-27T08:53:34.149Z,76.20
2018-04-27T08:56:02.560Z,74.70
2018-04-27T08:58:31.118Z,74.60
2018-04-27T09:00:59.959Z,76.10
2018-04-27T09:03:29.788Z,76.10
2018-04-27T09:05:58.022Z,78.40
2018-04-27T09:08:26.616Z,75.10
2018-04-27T09:10:54.709Z,76.50
2018-04-27T09:13:23.207Z,77.80
2018-04-27T09:15:51.269Z,77.20
2018-04-27T09:18:20.047Z,75.70
2018-04-27T09:20:48.301Z,74.90
2018-04-27T09:23:16.361Z,77.30
2018-04-27T09:25:44.443Z,77.80
2018-04-27T09:28:12.977Z,76.40
2018-04-27T09:30:41.077Z,76.50
2018-04-27T09:33:09.181Z,76.30
2018-04-27T09:35:37.797Z,72.20
2018-04-27T09:38:05.867Z,73.20
2018-04-27T09:40:33.964Z,74.10
2018-04-27T09:43:02.227Z,73.70
2018-04-27T09:45:30.280Z,75.60
2018-04-27T09:47:58.372Z,74.70
2018-04-27T09:50:27.661Z,74.20
2018-04-27T09:52:55.720Z,74.10
2018-04-27T09:55:23.813Z,74.00
2018-04-27T09:57:52.856Z,71.90
2018-04-27T10:00:20.941Z,71.80
2018-04-27T10:02:49.011Z,74.20
2018-04-27T10:05:17.328Z,71.80
2018-04-27T10:07:46.160Z,72.00
2018-04-27T10:10:14.858Z,71.90
2018-04-27T10:12:43.304Z,70.80
2018-04-27T10:15:11.362Z,70.60
2018-04-27T10:17:40.250Z,70.60
2018-04-27T10:20:08.503Z,70.50
2018-04-27T10:22:36.581Z,69.80
2018-04-27T10:25:04.674Z,70.90
2018-04-27T10:27:33.953Z,69.20
2018-04-27T10:30:02.026Z,69.10
2018-04-27T10:32:30.126Z,66.60
2018-04-27T10:34:58.571Z,68.50
2018-04-27T10:37:26.648Z,68.90
2018-04-27T10:39:55.674Z,67.50
2018-04-27T10:42:23.898Z,67.10
2018-04-27T10:44:51.969Z,67.40
2018-04-27T10:47:20.061Z,66.80
2018-04-27T10:49:49.525Z,67.40
2018-04-27T10:52:18.268Z,67.30
2018-04-27T10:54:46.337Z,66.60
2018-04-27T10:57:14.981Z,69.20
2018-04-27T10:59:43.057Z,65.10
2018-04-27T11:02:11.141Z,62.80
2018-04-27T11:04:39.663Z,63.70
2018-04-27T11:07:07.731Z,61.70
2018-04-27T11:09:36.908Z,62.30
2018-04-27T11:12:06.330Z,60.30
2018-04-27T11:14:34.411Z,60.20
2018-04-27T11:17:02.491Z,60.60
2018-04-27T11:19:31.336Z,59.10
2018-04-27T11:21:59.409Z,58.00
2018-04-27T11:24:27.481Z,59.40
2018-04-27T11:26:56.473Z,58.20
2018-04-27T11:29:25.487Z,58.00
2018-04-27T11:31:53.817Z,58.00
2018-04-27T11:34:21.856Z,58.10
2018-04-27T11:36:50.253Z,59.50
2018-04-27T11:39:18.377Z,59.20
2018-04-27T11:41:46.455Z,56.80
2018-04-27T11:44:15.942Z,55.50
2018-04-27T11:46:44.056Z,55.50
2018-04-27T11:49:12.139Z,53.60
2018-04-27T11:51:40.416Z,53.90
2018-04-27T11:54:08.515Z,54.50
2018-04-27T11:56:36.579Z,54.30
2018-04-27T11:59:04.844Z,53.50
2018-04-27T12:01:33.699Z,53.70
2018-04-27T12:04:01.772Z,53.10
2018-04-27T12:06:30.440Z,51.50
2018-04-27T12:08:59.112Z,53.20
2018-04-27T12:11:27.239Z,53.30
2018-04-27T12:13:56.272Z,52.30
2018-04-27T12:16:24.346Z,49.90
2018-04-27T12:18:53.184Z,49.80
2018-04-27T12:21:21.918Z,49.80
2018-04-27T12:23:50.020Z,49.90
2018-04-27T12:26:18.100Z,50.70
2018-04-27T12:28:46.632Z,49.00
2018-04-27T12:31:14.832Z,48.30
2018-04-27T12:33:42.822Z,48.10
2018-04-27T12:36:11.201Z,49.00
2018-04-27T12:38:39.313Z,50.40
2018-04-27T12:41:07.386Z,50.80
2018-04-27T12:43:35.739Z,50.70
2018-04-27T12:46:03.821Z,48.90
2018-04-27T12:48:31.909Z,47.10
2018-04-27T12:51:00.297Z,49.00
2018-04-27T12:53:28.369Z,46.60
2018-04-27T12:55:56.487Z,48.20
2018-04-27T12:58:25.048Z,45.30
2018-04-27T13:00:53.884Z,46.90
2018-04-27T13:03:21.963Z,46.90
2018-04-27T13:05:50.484Z,46.70
2018-04-27T13:08:19.329Z,47.10
2018-04-27T13:10:47.417Z,47.10
2018-04-27T13:13:16.030Z,46.90
2018-04-27T13:15:44.447Z,46.30
2018-04-27T13:18:12.545Z,44.10
2018-04-27T13:20:41.153Z,43.80
2018-04-27T13:23:09.213Z,43.40
2018-04-27T13:25:37.329Z,46.20
2018-04-27T13:28:05.853Z,45.80
2018-04-27T13:30:33.919Z,46.40
2018-04-27T13:33:01.982Z,45.20
2018-04-27T13:35:31.171Z,45.80
2018-04-27T13:37:59.263Z,45.70
2018-04-27T13:40:27.328Z,44.30
2018-04-27T13:42:55.635Z,43.60
2018-04-27T13:45:23.740Z,45.70
2018-04-27T13:47:51.798Z,45.20
2018-04-27T13:50:20.977Z,46.50
2018-04-27T13:52:49.827Z,42.90
2018-04-27T13:55:18.831Z,44.80
2018-04-27T13:57:47.107Z,44.20
2018-04-27T14:00:15.246Z,43.00
2018-04-27T14:02:43.309Z,41.90
2018-04-27T14:05:11.860Z,42.90
2018-04-27T14:07:40.729Z,42.90
2018-04-27T14:10:08.802Z,42.80
2018-04-27T14:12:37.016Z,42.40
2018-04-27T14:15:06.748Z,43.20
2018-04-27T14:17:35.241Z,43.30
2018-04-27T14:20:04.083Z,43.30
2018-04-27T14:22:32.109Z,42.10
2018-04-27T14:25:00.194Z,43.00
2018-04-27T14:27:28.410Z,42.60
2018-04-27T14:29:56.518Z,41.90
2018-04-27T14:32:24.590Z,42.70
2018-04-27T14:34:53.102Z,43.80
2018-04-27T14:37:21.174Z,42.00
2018-04-27T14:39:49.234Z,42.60
2018-04-27T14:42:17.638Z,43.90
2018-04-27T14:44:45.697Z,42.70
2018-04-27T14:47:13.783Z,43.80
2018-04-27T14:49:42.961Z,42.10
2018-04-27T14:52:11.026Z,41.70
2018-04-27T14:54:39.136Z,41.60
2018-04-27T14:57:08.573Z,42.90
2018-04-27T14:59:36.653Z,42.80
2018-04-27T15:02:04.717Z,41.70
2018-04-27T15:04:33.241Z,42.20
2018-04-27T15:07:01.309Z,41.80
2018-04-27T15:09:29.368Z,43.00
2018-04-27T15:11:57.658Z,41.60
2018-04-27T15:14:25.725Z,40.80
2018-04-27T15:16:53.797Z,42.70
2018-04-27T15:19:22.749Z,43.40
2018-04-27T15:21:50.817Z,42.00
2018-04-27T15:24:18.893Z,42.30
2018-04-27T15:26:47.153Z,42.50
2018-04-27T15:29:15.233Z,42.50
2018-04-27T15:31:43.301Z,43.10
2018-04-27T15:34:11.628Z,42.60
2018-04-27T15:36:39.700Z,41.70
2018-04-27T15:39:07.775Z,41.60
2018-04-27T15:41:36.579Z,41.30
2018-04-27T15:44:05.422Z,42.10
2018-04-27T15:46:33.496Z,42.00
2018-04-27T15:49:01.648Z,40.70
2018-04-27T15:51:29.718Z,43.20
2018-04-27T15:53:57.808Z,42.30
2018-04-27T15:56:26.107Z,43.50
2018-04-27T15:58:54.177Z,44.10
2018-04-27T16:01:22.294Z,42.40
2018-04-27T16:03:51.287Z,42.20
2018-04-27T16:06:20.515Z,42.20
2018-04-27T16:08:48.619Z,42.50
2018-04-27T16:11:18.219Z,42.40
2018-04-27T16:13:55.254Z,42.80
2018-04-27T16:16:24.095Z,44.00
2018-04-27T16:18:52.932Z,43.20
2018-04-27T16:21:21.310Z,42.00
2018-04-27T16:23:49.443Z,41.90
2018-04-27T16:26:24.434Z,43.60
2018-04-27T16:28:52.672Z,43.90
2018-04-27T16:31:21.501Z,43.40
2018-04-27T16:33:50.521Z,43.30
2018-04-27T16:36:19.260Z,44.90
2018-04-27T16:38:47.333Z,44.00
2018-04-27T16:41:15.421Z,45.10
2018-04-27T16:43:43.722Z,44.20
2018-04-27T16:46:11.773Z,43.80
2018-04-27T16:48:39.833Z,44.00
2018-04-27T16:51:08.901Z,45.80
2018-04-27T16:53:36.981Z,45.80
2018-04-27T16:56:05.043Z,46.00
2018-04-27T16:58:33.519Z,46.40
2018-04-27T17:01:01.587Z,46.90
2018-04-27T17:03:29.668Z,46.80
2018-04-27T17:05:58.252Z,47.00
2018-04-27T17:08:26.327Z,47.70
2018-04-27T17:10:54.868Z,47.70
2018-04-27T17:13:23.437Z,47.20
2018-04-27T17:15:51.474Z,46.50
2018-04-27T17:18:19.548Z,45.80
2018-04-27T17:20:47.859Z,45.40
2018-04-27T17:23:16.040Z,44.40
2018-04-27T17:25:44.104Z,44.50
2018-04-27T17:28:12.422Z,44.40
2018-04-27T17:30:40.488Z,45.10
2018-04-27T17:33:08.589Z,43.60
2018-04-27T17:35:36.927Z,43.20
2018-04-27T17:38:05.765Z,43.40
2018-04-27T17:40:34.616Z,43.20
2018-04-27T17:43:02.804Z,43.20
2018-04-27T17:45:30.891Z,43.10
2018-04-27T17:47:59.069Z,43.90
2018-04-27T17:50:28.234Z,44.00
2018-04-27T17:52:56.298Z,43.50
2018-04-27T17:55:25.166Z,43.40
2018-04-27T17:57:53.534Z,43.50
2018-04-27T18:00:21.614Z,44.30
2018-04-27T18:02:49.674Z,44.40
2018-04-27T18:05:18.369Z,45.00
2018-04-27T18:07:46.440Z,46.40
2018-04-27T18:10:14.508Z,46.80
2018-04-27T18:12:42.926Z,47.60
2018-04-27T18:15:11.756Z,48.80
2018-04-27T18:17:39.894Z,48.80
2018-04-27T18:20:08.064Z,49.40
2018-04-27T18:22:36.168Z,50.30
2018-04-27T18:25:04.643Z,50.90
2018-04-27T18:27:33.185Z,51.40
2018-04-27T18:30:02.074Z,52.50
2018-04-27T18:32:30.129Z,52.50
2018-04-27T18:34:58.306Z,53.00
2018-04-27T18:37:27.149Z,53.70
2018-04-27T18:39:55.234Z,53.00
2018-04-27T18:42:23.696Z,53.80
2018-04-27T18:44:52.479Z,54.10
2018-04-27T18:47:20.541Z,54.10
2018-04-27T18:49:49.224Z,54.90
2018-04-27T18:52:17.303Z,55.70
2018-04-27T18:54:45.439Z,54.70
2018-04-27T18:57:13.783Z,54.70
2018-04-27T18:59:45.501Z,55.60
2018-04-27T19:02:13.813Z,55.90
2018-04-27T19:04:41.877Z,54.20
2018-04-27T19:07:09.973Z,53.80
2018-04-27T19:09:38.693Z,54.40
2018-04-27T19:12:07.509Z,52.60
2018-04-27T19:14:35.579Z,52.60
2018-04-27T19:17:03.901Z,48.30
2018-04-27T19:19:31.989Z,48.50
2018-04-27T19:22:00.040Z,49.30
2018-04-27T19:24:28.365Z,48.90
2018-04-27T19:26:56.867Z,47.80
2018-04-27T19:29:24.947Z,48.80
2018-04-27T19:31:54.091Z,48.70
2018-04-27T19:34:22.973Z,47.00
2018-04-27T19:36:51.821Z,45.30
2018-04-27T19:39:19.953Z,45.30
2018-04-27T19:41:48.059Z,45.20
2018-04-27T19:44:16.139Z,45.70
2018-04-27T19:46:44.653Z,45.80
2018-04-27T19:49:16.078Z,46.90
2018-04-27T19:51:44.152Z,46.60
2018-04-27T19:54:12.885Z,46.50
2018-04-27T19:56:40.965Z,46.90
2018-04-27T19:59:09.046Z,46.60
2018-04-27T20:01:37.386Z,47.60
2018-04-27T20:04:06.245Z,48.20
2018-04-27T20:06:34.352Z,48.20
2018-04-27T20:09:03.548Z,48.70
2018-04-27T20:11:32.405Z,49.50
2018-04-27T20:14:01.375Z,49.50
2018-04-27T20:16:40.244Z,50.00
2018-04-27T20:19:09.094Z,50.50
2018-04-27T20:21:37.225Z,50.60
2018-04-27T20:24:07.102Z,49.70
2018-04-27T20:26:35.967Z,49.80
2018-04-27T20:29:04.434Z,49.50
2018-04-27T20:31:32.982Z,49.30
2018-04-27T20:34:01.870Z,50.30
2018-04-27T20:36:29.944Z,50.30
2018-04-27T20:38:59.043Z,51.00
2018-04-27T20:41:27.887Z,53.30
2018-04-27T20:43:56.744Z,52.40
2018-04-27T20:46:25.137Z,52.40
2018-04-27T20:48:53.208Z,52.40
2018-04-27T20:51:22.483Z,53.00
2018-04-27T20:53:51.793Z,53.60
2018-04-27T20:56:21.704Z,53.50
2018-04-27T20:58:49.827Z,53.20
2018-04-27T21:01:18.425Z,53.40
2018-04-27T21:03:47.290Z,52.60
2018-04-27T21:06:16.239Z,52.60
2018-04-27T21:08:44.805Z,52.10
2018-04-27T21:11:13.661Z,53.30
2018-04-27T21:13:42.709Z,53.30
2018-04-27T21:16:11.147Z,54.10
2018-04-27T21:18:39.261Z,52.00
2018-04-27T21:21:07.329Z,52.30
2018-04-27T21:23:35.673Z,52.90
2018-04-27T21:26:03.758Z,53.80
2018-04-27T21:28:34.221Z,52.80
2018-04-27T21:31:04.043Z,52.80
2018-04-27T21:33:34.550Z,54.10
2018-04-27T21:36:03.061Z,53.80
2018-04-27T21:38:32.987Z,53.80
2018-04-27T21:41:01.127Z,54.20
2018-04-27T21:43:29.480Z,53.60
2018-04-27T21:45:57.563Z,53.90
2018-04-27T21:48:27.452Z,55.70
2018-04-27T21:50:56.754Z,56.30
2018-04-27T21:53:25.600Z,56.60
2018-04-27T21:55:53.678Z,56.60
2018-04-27T21:58:24.030Z,57.00
2018-04-27T22:00:52.112Z,57.20
2018-04-27T22:03:24.124Z,56.60
2018-04-27T22:19:37.018Z,58.00
2018-04-27T22:22:05.092Z,56.40
2018-04-27T22:24:33.161Z,56.30
2018-04-27T22:27:04.364Z,56.20
2018-04-27T22:29:34.864Z,56.70
2018-04-27T22:32:04.965Z,56.70
2018-04-27T22:34:37.628Z,56.90
2018-04-27T22:37:05.698Z,56.60
2018-04-27T22:43:00.001Z,55.60
2018-04-27T22:45:37.707Z,55.60
2018-04-27T22:48:22.366Z,55.50
2018-04-27T22:50:50.849Z,55.40
2018-04-27T22:53:18.937Z,55.30
2018-04-27T22:55:47.007Z,55.60
2018-04-27T22:58:17.392Z,55.90
2018-04-27T23:00:47.075Z,56.30
2018-04-27T23:03:16.839Z,56.40
2018-04-27T23:05:45.575Z,56.40
2018-04-27T23:08:15.367Z,56.70
2018-04-27T23:10:54.285Z,56.60
2018-04-27T23:13:33.985Z,57.20
2018-04-27T23:16:02.752Z,57.00
2018-04-27T23:18:43.902Z,57.10
2018-04-27T23:35:04.455Z,57.20
2018-04-27T23:37:32.519Z,57.40
2018-04-27T23:40:00.587Z,57.40
2018-04-27T23:42:28.870Z,57.60
2018-04-27T23:44:56.944Z,57.70
2018-04-27T23:47:25.229Z,57.90
2018-04-27T23:49:53.896Z,58.10
2018-04-27T23:52:21.964Z,58.20
2018-04-27T23:54:50.039Z,58.20
2018-04-27T23:57:20.588Z,58.50
2018-04-27T23:59:48.679Z,58.80
